createdAt,value
2018-04-11T00:01:39.244Z,15.29
2018-04-11T00:04:06.863Z,15.21
2018-04-11T00:06:34.453Z,15.19
2018-04-11T00:09:02.085Z,15.10
2018-04-11T00:11:29.678Z,15.08
2018-04-11T00:13:57.277Z,14.95
2018-04-11T00:16:24.920Z,14.89
2018-04-11T00:18:52.548Z,14.83
2018-04-11T00:21:20.145Z,14.81
2018-04-11T00:23:47.785Z,14.74
2018-04-11T00:26:15.589Z,14.70
2018-04-11T00:28:43.183Z,14.65
2018-04-11T00:31:10.805Z,14.58
2018-04-11T00:33:38.432Z,14.46
2018-04-11T00:36:06.026Z,14.33
2018-04-11T00:38:33.756Z,14.24
2018-04-11T00:41:01.346Z,14.13
2018-04-11T00:43:28.936Z,14.07
2018-04-11T00:45:56.567Z,14.02
2018-04-11T00:48:24.157Z,13.91
2018-04-11T00:50:51.759Z,13.95
2018-04-11T00:53:27.148Z,13.81
2018-04-11T00:55:54.729Z,13.78
2018-04-11T00:58:22.373Z,13.67
2018-04-11T01:00:50.016Z,13.59
2018-04-11T01:03:17.612Z,13.49
2018-04-11T01:05:45.191Z,13.37
2018-04-11T01:08:12.829Z,13.30
2018-04-11T01:10:40.426Z,13.37
2018-04-11T01:13:08.039Z,13.34
2018-04-11T01:15:35.695Z,13.32
2018-04-11T01:18:03.272Z,13.31
2018-04-11T01:20:30.860Z,13.32
2018-04-11T01:22:58.494Z,13.23
2018-04-11T01:25:26.093Z,13.17
2018-04-11T01:27:53.691Z,13.16
2018-04-11T01:30:21.337Z,13.19
2018-04-11T01:32:48.924Z,13.17
2018-04-11T01:35:16.516Z,13.10
2018-04-11T01:37:44.143Z,13.23
2018-04-11T01:40:11.735Z,13.10
2018-04-11T01:42:39.328Z,12.97
2018-04-11T01:45:06.957Z,12.90
2018-04-11T01:47:34.780Z,13.02
2018-04-11T01:50:02.455Z,12.96
2018-04-11T01:52:30.081Z,12.90
2018-04-11T01:54:57.768Z,12.95
2018-04-11T01:57:25.433Z,12.87
2018-04-11T01:59:53.097Z,12.79
2018-04-11T02:02:20.759Z,12.71
2018-04-11T02:04:48.352Z,12.64
2018-04-11T02:07:15.992Z,12.68
2018-04-11T02:09:43.692Z,12.67
2018-04-11T02:12:11.551Z,12.58
2018-04-11T02:14:39.393Z,12.50
2018-04-11T02:17:06.993Z,12.44
2018-04-11T02:19:34.830Z,12.47
2018-04-11T02:22:02.511Z,12.67
2018-04-11T02:24:30.108Z,12.69
2018-04-11T02:26:57.714Z,12.65
2018-04-11T02:29:25.404Z,12.66
2018-04-11T02:31:53.123Z,12.77
2018-04-11T02:34:20.762Z,12.77
2018-04-11T02:36:48.580Z,12.78
2018-04-11T02:39:16.177Z,12.94
2018-04-11T02:41:43.780Z,13.00
2018-04-11T02:44:11.421Z,12.95
2018-04-11T02:46:39.011Z,12.89
2018-04-11T02:49:06.604Z,12.81
2018-04-11T02:51:34.226Z,12.77
2018-04-11T02:54:01.822Z,12.83
2018-04-11T02:56:29.411Z,12.90
2018-04-11T02:58:57.040Z,12.88
2018-04-11T03:01:24.640Z,12.85
2018-04-11T03:03:52.222Z,12.88
2018-04-11T03:06:19.989Z,12.86
2018-04-11T03:08:47.593Z,12.73
2018-04-11T03:11:15.185Z,12.55
2018-04-11T03:13:42.850Z,12.45
2018-04-11T03:16:10.472Z,12.40
2018-04-11T03:18:38.049Z,12.41
2018-04-11T03:21:05.673Z,12.33
2018-04-11T03:23:33.256Z,12.30
2018-04-11T03:26:00.845Z,12.28
2018-04-11T03:28:28.485Z,12.30
2018-04-11T03:30:56.117Z,12.46
2018-04-11T03:33:23.760Z,12.38
2018-04-11T03:35:51.380Z,12.30
2018-04-11T03:38:18.982Z,12.29
2018-04-11T03:40:46.576Z,12.11
2018-04-11T03:43:14.208Z,12.01
2018-04-11T03:45:41.887Z,12.17
2018-04-11T03:48:09.490Z,12.18
2018-04-11T03:50:37.129Z,12.06
2018-04-11T03:53:04.749Z,11.89
2018-04-11T03:55:32.364Z,11.75
2018-04-11T03:58:00.000Z,11.65
2018-04-11T04:00:27.597Z,11.64
2018-04-11T04:02:55.205Z,11.73
2018-04-11T04:05:22.840Z,11.97
2018-04-11T04:07:50.485Z,12.28
2018-04-11T04:10:18.077Z,12.34
2018-04-11T04:12:45.701Z,12.37
2018-04-11T04:15:25.042Z,12.33
2018-04-11T04:18:04.421Z,12.25
2018-04-11T04:20:36.735Z,12.37
2018-04-11T04:23:04.330Z,12.73
2018-04-11T04:25:31.974Z,13.16
2018-04-11T04:27:59.568Z,13.73
2018-04-11T04:30:27.198Z,14.76
2018-04-11T04:32:54.828Z,15.90
2018-04-11T04:35:22.435Z,16.83
2018-04-11T04:37:50.089Z,18.01
2018-04-11T04:40:17.961Z,18.92
2018-04-11T04:42:45.652Z,19.81
2018-04-11T04:45:13.302Z,20.25
2018-04-11T04:47:41.136Z,20.11
2018-04-11T04:50:08.820Z,20.28
2018-04-11T04:52:36.477Z,21.17
2018-04-11T04:55:04.092Z,21.87
2018-04-11T04:57:31.817Z,22.85
2018-04-11T04:59:59.486Z,23.27
2018-04-11T05:02:27.132Z,23.66
2018-04-11T05:04:54.856Z,23.77
2018-04-11T05:07:22.678Z,23.85
2018-04-11T05:09:50.268Z,23.41
2018-04-11T05:12:17.910Z,23.75
2018-04-11T05:14:45.649Z,24.63
2018-04-11T05:17:13.309Z,25.11
2018-04-11T05:19:40.983Z,24.94
2018-04-11T05:22:08.825Z,25.88
2018-04-11T05:24:36.455Z,26.41
2018-04-11T05:27:04.179Z,26.93
2018-04-11T05:29:31.825Z,27.20
2018-04-11T05:31:59.472Z,27.00
2018-04-11T05:34:27.152Z,28.18
2018-04-11T05:36:55.002Z,28.07
2018-04-11T05:39:22.681Z,27.24
2018-04-11T05:41:50.352Z,27.19
2018-04-11T05:44:18.014Z,27.30
2018-04-11T05:46:45.678Z,27.94
2018-04-11T05:49:13.330Z,27.62
2018-04-11T05:51:40.986Z,27.54
2018-04-11T05:54:08.662Z,28.88
2018-04-11T05:56:36.304Z,30.01
2018-04-11T05:59:03.932Z,30.35
2018-04-11T06:01:31.524Z,29.03
2018-04-11T06:03:59.304Z,29.47
2018-04-11T06:06:26.969Z,29.93
2018-04-11T06:08:54.841Z,30.42
2018-04-11T06:11:22.503Z,30.17
2018-04-11T06:13:50.167Z,30.34
2018-04-11T06:16:18.002Z,31.26
2018-04-11T06:18:45.903Z,32.42
2018-04-11T06:21:13.565Z,32.24
2018-04-11T06:23:41.428Z,32.91
2018-04-11T06:26:09.087Z,32.10
2018-04-11T06:28:36.746Z,30.86
2018-04-11T06:31:04.422Z,30.77
2018-04-11T06:33:32.072Z,29.99
2018-04-11T06:35:59.739Z,30.84
2018-04-11T06:38:27.398Z,30.81
2018-04-11T06:40:55.065Z,30.78
2018-04-11T06:43:22.726Z,30.94
2018-04-11T06:45:50.391Z,31.25
2018-04-11T06:48:18.058Z,31.39
2018-04-11T06:50:45.768Z,31.44
2018-04-11T06:53:13.584Z,32.08
2018-04-11T06:55:41.232Z,31.64
2018-04-11T06:58:08.896Z,31.29
2018-04-11T07:00:36.493Z,32.33
2018-04-11T07:03:04.135Z,32.74
2018-04-11T07:05:31.893Z,33.27
2018-04-11T07:07:59.567Z,33.40
2018-04-11T07:10:27.379Z,33.05
2018-04-11T07:12:55.106Z,31.81
2018-04-11T07:15:22.746Z,31.52
2018-04-11T07:17:50.411Z,31.16
2018-04-11T07:20:18.281Z,31.33
2018-04-11T07:22:45.879Z,32.50
2018-04-11T07:25:13.708Z,33.81
2018-04-11T07:27:41.526Z,34.08
2018-04-11T07:30:09.127Z,33.70
2018-04-11T07:32:36.710Z,34.20
2018-04-11T07:35:04.663Z,34.68
2018-04-11T07:37:32.243Z,33.89
2018-04-11T07:39:59.838Z,33.21
2018-04-11T07:42:27.829Z,32.74
2018-04-11T07:44:55.513Z,32.89
2018-04-11T07:47:23.169Z,33.26
2018-04-11T07:49:50.824Z,33.54
2018-04-11T07:52:18.499Z,33.53
2018-04-11T07:54:46.156Z,34.04
2018-04-11T07:57:13.787Z,33.17
2018-04-11T07:59:41.481Z,33.18
2018-04-11T08:02:09.108Z,33.61
2018-04-11T08:04:36.787Z,32.69
2018-04-11T08:07:04.655Z,32.27
2018-04-11T08:09:32.336Z,32.33
2018-04-11T08:11:59.977Z,32.75
2018-04-11T08:14:27.612Z,32.10
2018-04-11T08:16:55.372Z,32.03
2018-04-11T08:19:23.188Z,31.10
2018-04-11T08:21:50.849Z,30.60
2018-04-11T08:24:19.693Z,30.80
2018-04-11T08:26:47.398Z,31.35
2018-04-11T08:29:15.075Z,32.10
2018-04-11T08:31:42.698Z,32.19
2018-04-11T08:34:10.320Z,32.37
2018-04-11T08:36:38.037Z,31.80
2018-04-11T08:39:06.489Z,30.59
2018-04-11T08:41:34.257Z,29.72
2018-04-11T08:44:01.853Z,29.54
2018-04-11T08:46:29.557Z,28.88
2018-04-11T08:48:57.382Z,29.24
2018-04-11T08:51:24.972Z,29.70
2018-04-11T08:53:52.717Z,31.07
2018-04-11T08:56:20.329Z,31.82
2018-04-11T08:58:48.042Z,31.73
2018-04-11T09:01:15.700Z,29.37
2018-04-11T09:03:43.365Z,29.75
2018-04-11T09:06:11.027Z,29.16
2018-04-11T09:08:38.684Z,29.40
2018-04-11T09:11:06.406Z,29.66
2018-04-11T09:13:34.426Z,29.12
2018-04-11T09:16:02.013Z,29.49
2018-04-11T09:18:29.641Z,30.13
2018-04-11T09:20:57.413Z,29.96
2018-04-11T09:23:25.078Z,29.31
2018-04-11T09:25:52.696Z,29.36
2018-04-11T09:28:20.281Z,29.22
2018-04-11T09:30:48.061Z,30.09
2018-04-11T09:33:15.708Z,30.63
2018-04-11T09:35:43.386Z,31.11
2018-04-11T09:38:11.033Z,31.01
2018-04-11T09:40:38.692Z,31.33
2018-04-11T09:43:06.268Z,32.94
2018-04-11T09:45:33.899Z,33.40
2018-04-11T09:48:01.697Z,33.40
2018-04-11T09:50:29.281Z,32.96
2018-04-11T09:52:56.885Z,31.97
2018-04-11T09:55:24.544Z,31.12
2018-04-11T09:57:52.142Z,31.10
2018-04-11T10:00:19.730Z,31.46
2018-04-11T10:02:53.096Z,30.81
2018-04-11T10:05:20.682Z,31.56
2018-04-11T10:07:48.268Z,32.54
2018-04-11T10:10:15.892Z,32.36
2018-04-11T10:12:43.477Z,32.21
2018-04-11T10:15:11.052Z,31.83
2018-04-11T10:17:38.662Z,31.53
2018-04-11T10:20:06.224Z,31.74
2018-04-11T10:22:33.852Z,31.94
2018-04-11T10:25:01.510Z,32.24
2018-04-11T10:27:29.102Z,32.06
2018-04-11T10:29:56.687Z,32.31
2018-04-11T10:32:24.300Z,31.09
2018-04-11T10:34:51.877Z,31.32
2018-04-11T10:37:19.444Z,32.18
2018-04-11T10:39:47.151Z,32.67
2018-04-11T10:42:14.715Z,32.36
2018-04-11T10:44:42.640Z,31.98
2018-04-11T10:47:10.362Z,31.49
2018-04-11T10:49:37.935Z,31.79
2018-04-11T10:52:05.518Z,31.93
2018-04-11T10:54:33.134Z,31.36
2018-04-11T10:57:00.789Z,32.00
2018-04-11T10:59:28.412Z,32.15
2018-04-11T11:01:56.109Z,31.88
2018-04-11T11:04:24.349Z,32.06
2018-04-11T11:06:51.933Z,32.07
2018-04-11T11:09:19.597Z,32.37
2018-04-11T11:11:47.184Z,32.55
2018-04-11T11:14:14.760Z,33.81
2018-04-11T11:16:42.386Z,34.78
2018-04-11T11:19:10.012Z,34.83
2018-04-11T11:21:37.590Z,33.35
2018-04-11T11:24:05.238Z,32.52
2018-04-11T11:26:32.870Z,32.58
2018-04-11T11:29:00.514Z,32.61
2018-04-11T11:31:28.143Z,32.98
2018-04-11T11:33:55.785Z,33.06
2018-04-11T11:36:23.384Z,32.36
2018-04-11T11:38:51.065Z,32.03
2018-04-11T11:41:18.703Z,31.95
2018-04-11T11:43:46.301Z,31.72
2018-04-11T11:46:13.935Z,31.41
2018-04-11T11:48:41.521Z,30.61
2018-04-11T11:51:09.106Z,30.63
2018-04-11T11:53:36.784Z,30.37
2018-04-11T11:56:04.392Z,30.18
2018-04-11T11:58:31.977Z,30.34
2018-04-11T12:00:59.605Z,29.59
2018-04-11T12:03:27.209Z,29.06
2018-04-11T12:05:54.802Z,28.84
2018-04-11T12:08:22.436Z,28.87
2018-04-11T12:10:50.017Z,28.90
2018-04-11T12:13:17.604Z,29.00
2018-04-11T12:15:45.219Z,28.73
2018-04-11T12:18:12.804Z,28.88
2018-04-11T12:20:40.389Z,28.85
2018-04-11T12:23:08.003Z,29.32
2018-04-11T12:25:35.635Z,29.60
2018-04-11T12:28:03.276Z,29.76
2018-04-11T12:30:30.922Z,30.24
2018-04-11T12:32:58.515Z,30.01
2018-04-11T12:35:26.305Z,29.65
2018-04-11T12:37:53.931Z,29.48
2018-04-11T12:40:21.509Z,29.67
2018-04-11T12:42:49.116Z,29.81
2018-04-11T12:45:16.720Z,30.21
2018-04-11T12:47:44.298Z,29.74
2018-04-11T12:50:11.883Z,29.58
2018-04-11T12:52:39.511Z,29.45
2018-04-11T12:55:07.109Z,29.11
2018-04-11T12:57:34.738Z,28.43
2018-04-11T13:00:02.412Z,28.20
2018-04-11T13:02:30.032Z,27.87
2018-04-11T13:04:57.675Z,27.75
2018-04-11T13:07:25.283Z,27.46
2018-04-11T13:09:52.867Z,27.22
2018-04-11T13:12:20.473Z,27.26
2018-04-11T13:14:48.115Z,27.43
2018-04-11T13:17:15.697Z,27.35
2018-04-11T13:19:43.279Z,27.24
2018-04-11T13:22:10.904Z,27.16
2018-04-11T13:24:38.491Z,27.13
2018-04-11T13:27:06.065Z,26.92
2018-04-11T13:29:33.687Z,26.64
2018-04-11T13:32:01.286Z,26.58
2018-04-11T13:34:28.930Z,26.45
2018-04-11T13:36:56.630Z,26.26
2018-04-11T13:39:24.214Z,26.20
2018-04-11T13:41:51.796Z,26.26
2018-04-11T13:44:19.435Z,26.23
2018-04-11T13:46:47.064Z,26.06
2018-04-11T13:49:14.655Z,26.12
2018-04-11T13:51:42.264Z,26.04
2018-04-11T13:54:09.870Z,25.72
2018-04-11T13:56:37.439Z,25.72
2018-04-11T13:59:05.066Z,25.50
2018-04-11T14:01:32.842Z,25.62
2018-04-11T14:04:00.492Z,25.41
2018-04-11T14:06:28.123Z,25.16
2018-04-11T14:08:55.752Z,25.21
2018-04-11T14:11:23.503Z,25.30
2018-04-11T14:13:51.127Z,25.22
2018-04-11T14:16:18.822Z,25.27
2018-04-11T14:18:46.467Z,25.18
2018-04-11T14:21:14.129Z,25.25
2018-04-11T14:23:41.689Z,25.17
2018-04-11T14:26:09.452Z,24.98
2018-04-11T14:28:37.133Z,24.98
2018-04-11T14:31:04.752Z,24.85
2018-04-11T14:33:32.454Z,24.82
2018-04-11T14:36:00.089Z,24.78
2018-04-11T14:38:27.685Z,24.69
2018-04-11T14:40:55.446Z,24.72
2018-04-11T14:43:23.061Z,24.67
2018-04-11T14:45:50.761Z,24.59
2018-04-11T14:48:18.405Z,24.49
2018-04-11T14:50:46.104Z,24.38
2018-04-11T14:53:13.750Z,24.34
2018-04-11T14:55:41.424Z,24.19
2018-04-11T14:58:09.040Z,24.16
2018-04-11T15:00:36.737Z,24.14
2018-04-11T15:03:04.406Z,24.13
2018-04-11T15:05:32.045Z,24.16
2018-04-11T15:07:59.709Z,24.19
2018-04-11T15:10:27.450Z,24.14
2018-04-11T15:12:55.467Z,24.15
2018-04-11T15:15:23.113Z,24.04
2018-04-11T15:17:50.787Z,24.05
2018-04-11T15:20:18.641Z,23.94
2018-04-11T15:22:46.323Z,23.88
2018-04-11T15:25:13.972Z,23.84
2018-04-11T15:27:41.603Z,23.79
2018-04-11T15:30:09.397Z,23.80
2018-04-11T15:32:36.976Z,23.83
2018-04-11T15:35:04.734Z,23.84
2018-04-11T15:37:32.329Z,23.84
2018-04-11T15:40:00.049Z,23.75
2018-04-11T15:42:28.134Z,23.70
2018-04-11T15:44:55.705Z,23.68
2018-04-11T15:47:23.285Z,23.74
2018-04-11T15:49:50.913Z,23.77
2018-04-11T15:52:18.571Z,23.77
2018-04-11T15:54:46.229Z,23.83
2018-04-11T15:57:13.839Z,23.84
2018-04-11T15:59:41.426Z,23.82
2018-04-11T16:02:09.014Z,23.82
2018-04-11T16:04:36.615Z,23.95
2018-04-11T16:07:04.376Z,24.03
2018-04-11T16:09:32.033Z,24.02
2018-04-11T16:11:59.667Z,24.04
2018-04-11T16:14:27.338Z,23.97
2018-04-11T16:16:54.937Z,23.93
2018-04-11T16:19:22.583Z,23.78
2018-04-11T16:21:50.176Z,23.74
2018-04-11T16:24:17.809Z,23.59
2018-04-11T16:26:45.440Z,23.37
2018-04-11T16:29:13.014Z,23.27
2018-04-11T16:31:40.601Z,23.11
2018-04-11T16:34:08.228Z,22.95
2018-04-11T16:36:35.795Z,22.84
2018-04-11T16:39:03.437Z,22.62
2018-04-11T16:41:31.046Z,22.58
2018-04-11T16:43:58.648Z,22.48
2018-04-11T16:46:26.245Z,22.32
2018-04-11T16:48:53.859Z,22.25
2018-04-11T16:51:21.447Z,22.16
2018-04-11T16:53:49.085Z,21.99
2018-04-11T16:56:16.715Z,21.86
2018-04-11T16:58:44.297Z,21.84
2018-04-11T17:01:11.874Z,21.84
2018-04-11T17:03:39.583Z,21.76
2018-04-11T17:06:07.169Z,21.63
2018-04-11T17:08:34.771Z,21.59
2018-04-11T17:11:02.458Z,21.42
2018-04-11T17:13:30.060Z,21.16
2018-04-11T17:15:57.691Z,20.93
2018-04-11T17:18:25.308Z,20.83
2018-04-11T17:21:04.635Z,20.56
2018-04-11T17:23:44.036Z,20.60
2018-04-11T17:26:23.318Z,20.72
2018-04-11T17:29:02.701Z,20.78
2018-04-11T17:31:32.212Z,20.76
2018-04-11T17:33:59.841Z,20.65
2018-04-11T17:36:27.453Z,20.49
2018-04-11T17:38:55.030Z,20.37
2018-04-11T17:41:23.396Z,20.17
2018-04-11T17:43:51.062Z,20.01
2018-04-11T17:46:18.651Z,19.81
2018-04-11T17:48:46.254Z,19.63
2018-04-11T17:51:13.883Z,19.51
2018-04-11T17:53:41.468Z,19.43
2018-04-11T17:56:09.065Z,19.35
2018-04-11T17:58:36.696Z,19.36
2018-04-11T18:01:04.295Z,19.41
2018-04-11T18:03:31.881Z,19.26
2018-04-11T18:05:59.503Z,19.07
2018-04-11T18:08:27.083Z,18.98
2018-04-11T18:10:54.662Z,18.86
2018-04-11T18:13:22.277Z,18.86
2018-04-11T18:15:49.895Z,18.95
2018-04-11T18:18:17.478Z,19.39
2018-04-11T18:20:45.109Z,19.69
2018-04-11T18:23:12.699Z,19.65
2018-04-11T18:25:40.288Z,19.81
2018-04-11T18:28:07.900Z,19.88
2018-04-11T18:30:35.500Z,19.75
2018-04-11T18:33:03.129Z,19.70
2018-04-11T18:35:30.753Z,19.79
2018-04-11T18:37:58.340Z,19.80
2018-04-11T18:40:25.933Z,19.64
2018-04-11T18:42:53.720Z,19.40
2018-04-11T18:45:21.322Z,19.25
2018-04-11T18:47:48.917Z,18.86
2018-04-11T18:50:16.551Z,18.81
2018-04-11T18:52:44.136Z,18.62
2018-04-11T18:55:11.742Z,18.44
2018-04-11T18:57:39.361Z,18.19
2018-04-11T19:00:06.959Z,17.93
2018-04-11T19:02:34.546Z,17.74
2018-04-11T19:05:02.165Z,17.53
2018-04-11T19:07:29.848Z,17.35
2018-04-11T19:09:57.419Z,17.12
2018-04-11T19:12:25.033Z,17.00
2018-04-11T19:14:52.600Z,16.83
2018-04-11T19:17:20.177Z,16.60
2018-04-11T19:19:47.792Z,16.55
2018-04-11T19:22:15.359Z,16.40
2018-04-11T19:24:42.954Z,16.34
2018-04-11T19:27:10.620Z,16.31
2018-04-11T19:29:38.247Z,16.18
2018-04-11T19:32:06.348Z,16.05
2018-04-11T19:34:33.980Z,15.89
2018-04-11T19:37:01.586Z,15.77
2018-04-11T19:39:29.186Z,15.59
2018-04-11T19:41:56.840Z,15.48
2018-04-11T19:44:24.518Z,15.43
2018-04-11T19:46:52.148Z,15.30
2018-04-11T19:49:19.816Z,15.30
2018-04-11T19:51:47.441Z,15.31
2018-04-11T19:54:15.048Z,15.33
2018-04-11T19:56:42.672Z,15.30
2018-04-11T19:59:10.311Z,15.17
2018-04-11T20:01:37.898Z,15.02
2018-04-11T20:04:05.592Z,14.93
2018-04-11T20:06:33.229Z,14.86
2018-04-11T20:09:01.620Z,14.71
2018-04-11T20:11:29.238Z,14.67
2018-04-11T20:13:56.935Z,14.52
2018-04-11T20:16:24.564Z,14.41
2018-04-11T20:18:52.276Z,14.28
2018-04-11T20:21:20.874Z,14.15
2018-04-11T20:23:48.622Z,14.12
2018-04-11T20:26:16.261Z,14.12
2018-04-11T20:28:44.883Z,14.10
2018-04-11T20:31:12.849Z,14.00
2018-04-11T20:33:40.421Z,13.89
2018-04-11T20:36:08.015Z,13.69
2018-04-11T20:38:35.647Z,13.54
2018-04-11T20:41:03.220Z,13.54
2018-04-11T20:43:30.823Z,13.62
2018-04-11T20:45:58.448Z,13.59
2018-04-11T20:48:26.077Z,13.50
2018-04-11T20:50:53.684Z,13.51
2018-04-11T20:53:21.306Z,13.44
2018-04-11T20:55:48.892Z,13.55
2018-04-11T20:58:16.489Z,13.51
2018-04-11T21:00:44.113Z,13.48
2018-04-11T21:03:11.696Z,13.74
2018-04-11T21:05:39.301Z,13.61
2018-04-11T21:08:06.935Z,13.50
2018-04-11T21:10:34.522Z,13.34
2018-04-11T21:13:02.097Z,13.26
2018-04-11T21:15:29.713Z,13.20
2018-04-11T21:17:57.355Z,13.24
2018-04-11T21:20:24.955Z,13.27
2018-04-11T21:22:52.639Z,13.09
2018-04-11T21:25:20.221Z,12.89
2018-04-11T21:27:47.800Z,12.80
2018-04-11T21:30:15.432Z,12.64
2018-04-11T21:32:43.027Z,12.62
2018-04-11T21:35:10.602Z,12.76
2018-04-11T21:37:38.224Z,12.60
2018-04-11T21:40:05.823Z,12.44
2018-04-11T21:42:33.399Z,12.31
2018-04-11T21:45:01.023Z,12.18
2018-04-11T21:47:28.651Z,12.11
2018-04-11T21:49:56.241Z,12.09
2018-04-11T21:52:23.880Z,12.24
2018-04-11T21:54:51.467Z,12.18
2018-04-11T21:57:19.066Z,12.11
2018-04-11T21:59:46.685Z,12.15
2018-04-11T22:02:14.280Z,12.06
2018-04-11T22:04:41.862Z,12.19
2018-04-11T22:07:09.499Z,12.09
2018-04-11T22:09:37.094Z,11.90
2018-04-11T22:12:04.740Z,11.79
2018-04-11T22:14:32.364Z,11.69
2018-04-11T22:16:59.964Z,11.73
2018-04-11T22:19:27.561Z,11.67
2018-04-11T22:21:55.200Z,11.83
2018-04-11T22:24:22.792Z,11.93
2018-04-11T22:26:50.428Z,11.73
2018-04-11T22:29:18.060Z,11.58
2018-04-11T22:31:45.667Z,11.42
2018-04-11T22:34:13.249Z,11.30
2018-04-11T22:36:40.898Z,11.26
2018-04-11T22:39:08.537Z,11.12
2018-04-11T22:41:36.125Z,11.10
2018-04-11T22:44:03.742Z,11.01
2018-04-11T22:46:31.366Z,11.16
2018-04-11T22:48:58.970Z,11.60
2018-04-11T22:51:26.612Z,11.56
2018-04-11T22:53:54.204Z,11.47
2018-04-11T22:56:21.835Z,11.58
2018-04-11T22:58:49.456Z,11.43
2018-04-11T23:01:17.049Z,11.48
2018-04-11T23:03:44.634Z,11.43
2018-04-11T23:06:12.261Z,11.24
2018-04-11T23:08:39.853Z,11.42
2018-04-11T23:11:07.490Z,11.35
2018-04-11T23:13:35.178Z,11.22
2018-04-11T23:16:02.845Z,11.15
2018-04-11T23:18:30.507Z,11.04
2018-04-11T23:20:58.161Z,10.90
2018-04-11T23:23:25.764Z,10.78
2018-04-11T23:25:53.387Z,10.82
2018-04-11T23:28:21.021Z,10.70
2018-04-11T23:30:48.603Z,11.07
2018-04-11T23:33:16.199Z,10.92
2018-04-11T23:35:43.828Z,10.69
2018-04-11T23:38:11.468Z,10.73
2018-04-11T23:40:39.065Z,10.81
2018-04-11T23:43:06.699Z,10.93
2018-04-11T23:45:34.314Z,10.96
2018-04-11T23:48:01.916Z,10.87
2018-04-11T23:50:29.572Z,10.90
2018-04-11T23:52:57.190Z,10.89
2018-04-11T23:55:24.790Z,10.80
2018-04-11T23:57:52.416Z,10.93
